createdAt,value
2023-09-02T00:04:48.942Z,3.70
2023-09-02T00:09:50.201Z,4.28
2023-09-02T00:14:51.391Z,3.60
2023-09-02T00:19:52.866Z,4.18
2023-09-02T00:24:54.185Z,3.67
2023-09-02T00:29:55.740Z,3.80
2023-09-02T00:34:57.294Z,3.50
2023-09-02T00:39:58.771Z,3.90
2023-09-02T00:45:00.092Z,4.03
2023-09-02T00:50:02.098Z,3.80
2023-09-02T00:55:03.833Z,4.13
2023-09-02T01:00:06.033Z,4.45
2023-09-02T01:05:07.716Z,4.85
2023-09-02T01:10:09.296Z,5.07
2023-09-02T01:15:10.682Z,4.72
2023-09-02T01:20:16.934Z,4.30
2023-09-02T01:25:30.561Z,4.45
2023-09-02T01:30:34.189Z,4.07
2023-09-02T01:35:38.378Z,4.50
2023-09-02T01:40:42.074Z,4.32
2023-09-02T01:45:43.654Z,3.67
2023-09-02T01:50:45.638Z,4.57
2023-09-02T01:55:50.145Z,5.50
2023-09-02T02:00:52.864Z,6.13
2023-09-02T02:05:54.478Z,7.65
2023-09-02T02:10:59.592Z,6.75
2023-09-02T02:16:00.931Z,6.72
2023-09-02T02:21:03.986Z,5.60
2023-09-02T02:26:07.578Z,5.25
2023-09-02T02:31:09.484Z,4.80
2023-09-02T02:36:10.917Z,4.93
2023-09-02T02:41:12.086Z,5.43
2023-09-02T02:46:13.336Z,5.03
2023-09-02T02:51:14.798Z,5.30
2023-09-02T02:56:17.420Z,5.85
2023-09-02T03:01:18.864Z,5.50
2023-09-02T03:06:20.955Z,5.97
2023-09-02T03:11:22.335Z,5.85
2023-09-02T03:16:23.704Z,5.15
2023-09-02T03:21:24.995Z,4.93
2023-09-02T03:26:27.534Z,6.00
2023-09-02T03:31:30.751Z,6.53
2023-09-02T03:36:33.483Z,6.53
2023-09-02T03:41:37.825Z,6.07
2023-09-02T03:46:39.174Z,5.75
2023-09-02T03:51:40.439Z,5.55
2023-09-02T03:56:43.067Z,5.32
2023-09-02T04:01:44.389Z,5.38
2023-09-02T04:06:45.654Z,5.32
2023-09-02T04:11:46.946Z,5.75
2023-09-02T04:16:48.519Z,5.43
2023-09-02T04:21:52.274Z,4.85
2023-09-02T04:26:53.823Z,5.45
2023-09-02T04:31:58.095Z,5.70
2023-09-02T04:37:00.692Z,6.03
2023-09-02T04:42:02.555Z,5.60
2023-09-02T04:47:04.529Z,6.00
2023-09-02T04:52:07.585Z,7.50
2023-09-02T04:57:09.181Z,7.53
2023-09-02T05:02:10.792Z,7.47
2023-09-02T05:07:12.203Z,6.80
2023-09-02T05:12:13.675Z,6.13
2023-09-02T05:17:15.122Z,5.72
2023-09-02T05:22:16.633Z,6.00
2023-09-02T05:27:18.209Z,5.68
2023-09-02T05:32:19.636Z,5.90
2023-09-02T05:37:20.902Z,5.53
2023-09-02T05:42:22.258Z,6.30
2023-09-02T05:47:23.665Z,5.72
2023-09-02T05:52:24.976Z,6.20
2023-09-02T05:57:26.403Z,6.30
2023-09-02T06:02:28.421Z,6.57
2023-09-02T06:07:29.613Z,6.82
2023-09-02T06:12:31.105Z,6.68
2023-09-02T06:17:32.406Z,7.80
2023-09-02T06:22:33.642Z,6.95
2023-09-02T06:27:36.136Z,7.03
2023-09-02T06:32:37.678Z,7.28
2023-09-02T06:37:39.055Z,6.82
2023-09-02T06:42:40.308Z,6.50
2023-09-02T06:47:41.747Z,6.70
2023-09-02T06:52:43.106Z,6.00
2023-09-02T06:57:45.032Z,5.47
2023-09-02T07:02:46.482Z,5.57
2023-09-02T07:07:47.880Z,4.97
2023-09-02T07:12:52.808Z,3.97
2023-09-02T07:17:54.232Z,3.85
2023-09-02T07:22:55.655Z,3.60
2023-09-02T07:27:56.863Z,3.58
2023-09-02T07:32:58.391Z,4.00
2023-09-02T07:37:59.629Z,3.30
2023-09-02T07:43:02.479Z,3.60
2023-09-02T07:48:04.267Z,3.55
2023-09-02T07:53:05.684Z,4.47
2023-09-02T07:58:06.932Z,5.22
2023-09-02T08:03:08.554Z,4.22
2023-09-02T08:08:09.850Z,4.63
2023-09-02T08:13:11.097Z,4.00
2023-09-02T08:18:12.342Z,3.88
2023-09-02T08:23:13.567Z,4.03
2023-09-02T08:28:14.781Z,4.00
2023-09-02T08:33:16.656Z,3.95
2023-09-02T08:38:18.182Z,3.85
2023-09-02T08:43:21.093Z,3.83
2023-09-02T08:48:26.894Z,3.92
2023-09-02T08:53:29.638Z,3.88
2023-09-02T08:58:31.702Z,3.90
2023-09-02T09:03:33.721Z,4.18
2023-09-02T09:08:35.939Z,5.10
2023-09-02T09:13:45.261Z,4.72
2023-09-02T09:18:46.490Z,4.05
2023-09-02T09:23:47.726Z,3.70
2023-09-02T09:28:54.458Z,3.13
2023-09-02T09:34:01.012Z,3.47
2023-09-02T09:39:07.816Z,3.33
2023-09-02T09:44:17.571Z,3.28
2023-09-02T09:49:27.382Z,3.97
2023-09-02T09:54:42.364Z,3.00
2023-09-02T09:59:53.441Z,3.65
2023-09-02T10:05:00.414Z,2.72
2023-09-02T10:10:04.784Z,2.30
2023-09-02T10:15:07.806Z,2.67
2023-09-02T10:20:10.189Z,2.45
2023-09-02T10:25:19.508Z,2.17
2023-09-02T10:30:44.247Z,2.80
2023-09-02T10:35:51.274Z,2.22
2023-09-02T10:41:01.027Z,2.22
2023-09-02T10:46:03.671Z,1.95
2023-09-02T10:51:06.022Z,1.88
2023-09-02T10:56:07.391Z,1.80
2023-09-02T11:01:08.895Z,1.92
2023-09-02T11:06:13.034Z,1.38
2023-09-02T11:11:14.512Z,1.70
2023-09-02T11:16:15.996Z,1.50
2023-09-02T11:21:58.248Z,1.65
2023-09-02T11:27:00.051Z,1.50
2023-09-02T11:32:03.716Z,1.70
2023-09-02T11:37:06.056Z,1.30
2023-09-02T11:42:11.847Z,1.40
2023-09-02T11:47:14.492Z,1.48
2023-09-02T11:52:20.624Z,1.00
2023-09-02T11:57:21.847Z,1.30
2023-09-02T12:02:25.633Z,1.40
2023-09-02T12:07:27.129Z,1.38
2023-09-02T12:12:28.496Z,1.20
2023-09-02T12:17:30.429Z,1.20
2023-09-02T12:22:32.022Z,1.17
2023-09-02T12:27:35.585Z,0.80
2023-09-02T12:32:40.190Z,0.93
2023-09-02T12:37:41.478Z,1.20
2023-09-02T12:42:53.718Z,1.20
2023-09-02T12:47:59.100Z,1.00
2023-09-02T12:53:04.096Z,1.83
2023-09-02T12:58:05.636Z,1.70
2023-09-02T13:03:06.915Z,1.45
2023-09-02T13:08:08.156Z,1.00
2023-09-02T13:13:09.520Z,1.02
2023-09-02T13:18:10.828Z,0.90
2023-09-02T13:23:12.573Z,1.38
2023-09-02T13:28:13.916Z,1.10
2023-09-02T13:33:15.328Z,1.30
2023-09-02T13:38:23.783Z,1.20
2023-09-02T13:43:26.189Z,1.35
2023-09-02T13:48:29.156Z,1.02
2023-09-02T13:53:33.133Z,1.13
2023-09-02T13:58:36.002Z,1.30
2023-09-02T14:03:37.778Z,1.67
2023-09-02T14:08:42.285Z,1.58
2023-09-02T14:13:43.788Z,1.73
2023-09-02T14:18:47.018Z,1.65
2023-09-02T14:23:54.121Z,1.67
2023-09-02T14:28:57.041Z,1.83
2023-09-02T14:33:58.625Z,2.95
2023-09-02T14:38:59.838Z,1.70
2023-09-02T14:44:01.054Z,1.70
2023-09-02T14:49:02.428Z,5.63
2023-09-02T14:54:05.285Z,2.10
2023-09-02T14:59:16.969Z,1.67
2023-09-02T15:04:21.074Z,1.92
2023-09-02T15:09:32.372Z,1.60
2023-09-02T15:14:35.058Z,2.17
2023-09-02T15:19:36.485Z,1.80
2023-09-02T15:24:37.932Z,2.58
2023-09-02T15:29:39.916Z,2.60
2023-09-02T15:34:49.085Z,2.55
2023-09-02T15:39:53.455Z,2.40
2023-09-02T15:44:54.840Z,2.40
2023-09-02T15:49:56.000Z,3.85
2023-09-02T15:54:57.434Z,4.60
2023-09-02T15:59:58.838Z,4.03
2023-09-02T16:05:00.023Z,4.63
2023-09-02T16:10:01.584Z,4.60
2023-09-02T16:15:03.527Z,5.30
2023-09-02T16:20:07.595Z,5.90
2023-09-02T16:25:12.189Z,6.80
2023-09-02T16:30:13.881Z,7.07
2023-09-02T16:35:19.476Z,7.35
2023-09-02T16:40:21.076Z,6.90
2023-09-02T16:45:27.371Z,8.27
2023-09-02T16:50:28.765Z,8.18
2023-09-02T16:55:30.274Z,9.07
2023-09-02T17:00:36.241Z,9.65
2023-09-02T17:05:42.423Z,14.20
2023-09-02T17:10:43.797Z,14.40
2023-09-02T17:15:45.264Z,14.65
2023-09-02T17:20:46.695Z,15.40
2023-09-02T17:25:49.044Z,15.50
2023-09-02T17:31:05.618Z,16.50
2023-09-02T17:36:07.913Z,15.77
2023-09-02T17:41:09.451Z,15.95
2023-09-02T17:46:10.788Z,14.93
2023-09-02T17:51:12.105Z,16.40
2023-09-02T17:56:13.607Z,16.67
2023-09-02T18:01:14.943Z,17.15
2023-09-02T18:06:16.327Z,18.02
2023-09-02T18:11:17.656Z,18.70
2023-09-02T18:16:19.115Z,19.73
2023-09-02T18:21:20.513Z,18.98
2023-09-02T18:26:21.759Z,21.17
2023-09-02T18:31:23.525Z,20.00
2023-09-02T18:36:25.015Z,21.15
2023-09-02T18:41:26.379Z,23.95
2023-09-02T18:46:27.669Z,23.88
2023-09-02T18:51:29.037Z,24.30
2023-09-02T18:56:31.237Z,23.98
2023-09-02T19:01:32.976Z,24.10
2023-09-02T19:06:35.480Z,24.80
2023-09-02T19:11:39.748Z,25.20
2023-09-02T19:16:41.018Z,27.77
2023-09-02T19:21:42.520Z,27.27
2023-09-02T19:26:44.040Z,27.75
2023-09-02T19:31:45.248Z,27.13
2023-09-02T19:36:46.681Z,26.63
2023-09-02T19:41:48.581Z,26.92
2023-09-02T19:46:49.863Z,27.85
2023-09-02T19:51:51.222Z,26.98
2023-09-02T19:56:52.660Z,27.10
2023-09-02T20:01:54.369Z,26.80
2023-09-02T20:06:56.956Z,28.00
2023-09-02T20:11:58.370Z,28.55
2023-09-02T20:16:59.726Z,27.45
2023-09-02T20:22:01.088Z,28.63
2023-09-02T20:27:04.136Z,28.40
2023-09-02T20:32:06.099Z,32.65
2023-09-02T20:37:07.532Z,29.73
2023-09-02T20:42:08.928Z,30.92
2023-09-02T20:47:10.170Z,28.85
2023-09-02T20:52:11.343Z,31.88
2023-09-02T20:57:12.788Z,28.98
2023-09-02T21:02:14.015Z,31.70
2023-09-02T21:07:15.516Z,29.42
2023-09-02T21:12:16.876Z,29.63
2023-09-02T21:17:18.413Z,29.85
2023-09-02T21:22:19.611Z,29.23
2023-09-02T21:27:20.846Z,31.48
2023-09-02T21:32:22.197Z,32.42
2023-09-02T21:37:23.843Z,30.90
2023-09-02T21:42:25.343Z,32.08
2023-09-02T21:47:26.665Z,31.90
2023-09-02T21:52:28.073Z,31.10
2023-09-02T21:57:29.389Z,31.98
2023-09-02T22:02:30.697Z,34.92
2023-09-02T22:07:31.953Z,34.40
2023-09-02T22:12:33.320Z,32.75
2023-09-02T22:17:34.727Z,33.63
2023-09-02T22:22:36.173Z,34.35
2023-09-02T22:27:38.519Z,34.03
2023-09-02T22:32:39.669Z,31.73
2023-09-02T22:37:41.005Z,34.95
2023-09-02T22:42:42.379Z,31.85
2023-09-02T22:47:43.737Z,33.22
2023-09-02T22:52:45.270Z,33.88
2023-09-02T22:57:46.476Z,33.90
2023-09-02T23:02:47.938Z,33.35
2023-09-02T23:07:49.504Z,34.30
2023-09-02T23:12:51.144Z,33.33
2023-09-02T23:17:52.556Z,35.83
2023-09-02T23:22:54.001Z,34.53
2023-09-02T23:27:55.369Z,34.83
2023-09-02T23:32:56.636Z,36.30
2023-09-02T23:37:58.196Z,35.03
2023-09-02T23:42:59.404Z,35.22
2023-09-02T23:48:00.703Z,33.72
2023-09-02T23:53:02.044Z,33.22
2023-09-02T23:58:03.676Z,35.80
